Terminal Aerodrome Forecast
Issued by NWS Raleigh/Durham, NC

Home | Current Version | Previous Version | Text Only | Print | Product List | Glossary On
Versions: 1 2 3 4 5 6 7 8 9 10 11 12 13 14 15 16 17 18 19
000
FTUS42 KRAH 270252 AAC
TAFRDU
TAF AMD
KRDU 270252Z 2703/2724 23007KT P6SM SCT050
      TEMPO 2703/2704 VRB10G20KT 6SM -TSRA OVC040CB
     FM270500 21006KT P6SM SKC
     FM271800 24008KT P6SM SCT050=

USA.gov is the U.S. government's official web portal to all federal, state and local government web resources and services.